sensor_id;sensor_type;location;lat;lon;timestamp;P1;durP1;ratioP1;P2;durP2;ratioP2
1831;SDS011;1680;48.106;11.708;2023-01-01T00:00:31;106.10;;;84.90;;
1831;SDS011;1680;48.106;11.708;2023-01-01T00:02:59;94.77;;;83.23;;
1831;SDS011;1680;48.106;11.708;2023-01-01T00:05:28;62.80;;;54.20;;
1831;SDS011;1680;48.106;11.708;2023-01-01T00:07:55;45.30;;;38.00;;
1831;SDS011;1680;48.106;11.708;2023-01-01T00:10:22;38.60;;;32.87;;
1831;SDS011;1680;48.106;11.708;2023-01-01T00:12:56;42.73;;;36.57;;
1831;SDS011;1680;48.106;11.708;2023-01-01T00:15:25;44.40;;;35.63;;
1831;SDS011;1680;48.106;11.708;2023-01-01T00:17:53;47.53;;;37.87;;
1831;SDS011;1680;48.106;11.708;2023-01-01T00:20:22;33.33;;;25.63;;
1831;SDS011;1680;48.106;11.708;2023-01-01T00:22:51;40.23;;;31.03;;
1831;SDS011;1680;48.106;11.708;2023-01-01T00:25:19;28.27;;;21.87;;
1831;SDS011;1680;48.106;11.708;2023-01-01T00:27:46;33.10;;;25.50;;
1831;SDS011;1680;48.106;11.708;2023-01-01T00:30:14;24.83;;;21.27;;
1831;SDS011;1680;48.106;11.708;2023-01-01T00:32:41;25.73;;;18.90;;
1831;SDS011;1680;48.106;11.708;2023-01-01T00:35:09;29.50;;;24.00;;
1831;SDS011;1680;48.106;11.708;2023-01-01T00:37:37;22.27;;;17.60;;
1831;SDS011;1680;48.106;11.708;2023-01-01T00:40:06;26.10;;;19.10;;
1831;SDS011;1680;48.106;11.708;2023-01-01T00:42:34;24.77;;;20.03;;
1831;SDS011;1680;48.106;11.708;2023-01-01T00:45:04;25.40;;;21.20;;
1831;SDS011;1680;48.106;11.708;2023-01-01T00:47:33;26.10;;;21.73;;
1831;SDS011;1680;48.106;11.708;2023-01-01T00:50:00;28.20;;;24.00;;
1831;SDS011;1680;48.106;11.708;2023-01-01T00:52:27;31.03;;;26.30;;
1831;SDS011;1680;48.106;11.708;2023-01-01T00:54:55;35.37;;;27.37;;
1831;SDS011;1680;48.106;11.708;2023-01-01T00:57:23;38.13;;;29.93;;
1831;SDS011;1680;48.106;11.708;2023-01-01T00:59:51;37.33;;;30.17;;
1831;SDS011;1680;48.106;11.708;2023-01-01T01:02:18;37.00;;;30.63;;
1831;SDS011;1680;48.106;11.708;2023-01-01T01:04:45;37.23;;;30.60;;
1831;SDS011;1680;48.106;11.708;2023-01-01T01:07:13;41.50;;;33.33;;
1831;SDS011;1680;48.106;11.708;2023-01-01T01:09:40;40.57;;;33.83;;
1831;SDS011;1680;48.106;11.708;2023-01-01T01:12:07;39.83;;;33.13;;
1831;SDS011;1680;48.106;11.708;2023-01-01T01:14:36;40.93;;;33.40;;
1831;SDS011;1680;48.106;11.708;2023-01-01T01:17:04;36.93;;;30.80;;
1831;SDS011;1680;48.106;11.708;2023-01-01T01:19:31;39.87;;;31.73;;
1831;SDS011;1680;48.106;11.708;2023-01-01T01:21:59;44.30;;;34.27;;
1831;SDS011;1680;48.106;11.708;2023-01-01T01:24:26;39.20;;;33.13;;
1831;SDS011;1680;48.106;11.708;2023-01-01T01:26:54;41.73;;;34.20;;
1831;SDS011;1680;48.106;11.708;2023-01-01T01:29:21;43.37;;;34.10;;
1831;SDS011;1680;48.106;11.708;2023-01-01T01:31:50;45.50;;;34.97;;
1831;SDS011;1680;48.106;11.708;2023-01-01T01:34:17;47.37;;;36.17;;
1831;SDS011;1680;48.106;11.708;2023-01-01T01:36:44;43.07;;;36.13;;
1831;SDS011;1680;48.106;11.708;2023-01-01T01:39:12;50.23;;;39.40;;
1831;SDS011;1680;48.106;11.708;2023-01-01T01:41:40;47.93;;;40.53;;
1831;SDS011;1680;48.106;11.708;2023-01-01T01:47:08;49.07;;;41.20;;
1831;SDS011;1680;48.106;11.708;2023-01-01T01:49:40;46.47;;;38.23;;
1831;SDS011;1680;48.106;11.708;2023-01-01T01:52:09;54.17;;;43.47;;
1831;SDS011;1680;48.106;11.708;2023-01-01T01:54:37;50.97;;;40.23;;
1831;SDS011;1680;48.106;11.708;2023-01-01T01:57:07;48.90;;;39.13;;
1831;SDS011;1680;48.106;11.708;2023-01-01T01:59:38;55.67;;;42.00;;
1831;SDS011;1680;48.106;11.708;2023-01-01T02:02:13;52.73;;;40.07;;
1831;SDS011;1680;48.106;11.708;2023-01-01T02:04:46;52.10;;;39.47;;
1831;SDS011;1680;48.106;11.708;2023-01-01T02:07:13;48.97;;;39.23;;
1831;SDS011;1680;48.106;11.708;2023-01-01T02:09:41;52.20;;;37.93;;
1831;SDS011;1680;48.106;11.708;2023-01-01T02:12:09;45.07;;;36.30;;
1831;SDS011;1680;48.106;11.708;2023-01-01T02:14:37;42.67;;;33.60;;
1831;SDS011;1680;48.106;11.708;2023-01-01T02:17:06;43.63;;;34.33;;
1831;SDS011;1680;48.106;11.708;2023-01-01T02:19:43;44.23;;;34.63;;
1831;SDS011;1680;48.106;11.708;2023-01-01T02:25:14;39.27;;;31.17;;
1831;SDS011;1680;48.106;11.708;2023-01-01T02:27:48;37.50;;;28.50;;
1831;SDS011;1680;48.106;11.708;2023-01-01T02:30:25;31.90;;;26.03;;
1831;SDS011;1680;48.106;11.708;2023-01-01T02:32:55;30.80;;;26.30;;
1831;SDS011;1680;48.106;11.708;2023-01-01T02:35:27;33.57;;;25.90;;
1831;SDS011;1680;48.106;11.708;2023-01-01T02:38:04;31.90;;;25.03;;
1831;SDS011;1680;48.106;11.708;2023-01-01T02:40:34;28.80;;;24.23;;
1831;SDS011;1680;48.106;11.708;2023-01-01T02:43:07;31.60;;;23.33;;
1831;SDS011;1680;48.106;11.708;2023-01-01T02:45:35;28.17;;;21.67;;
1831;SDS011;1680;48.106;11.708;2023-01-01T02:48:03;24.30;;;18.97;;
1831;SDS011;1680;48.106;11.708;2023-01-01T02:50:32;21.60;;;18.00;;
1831;SDS011;1680;48.106;11.708;2023-01-01T02:53:08;21.03;;;17.30;;
1831;SDS011;1680;48.106;11.708;2023-01-01T02:55:51;22.63;;;17.93;;
1831;SDS011;1680;48.106;11.708;2023-01-01T02:58:29;19.20;;;17.07;;
1831;SDS011;1680;48.106;11.708;2023-01-01T03:01:22;25.30;;;19.70;;
1831;SDS011;1680;48.106;11.708;2023-01-01T03:03:59;17.70;;;14.00;;
1831;SDS011;1680;48.106;11.708;2023-01-01T03:06:33;17.00;;;14.80;;
1831;SDS011;1680;48.106;11.708;2023-01-01T03:09:10;18.50;;;15.47;;
1831;SDS011;1680;48.106;11.708;2023-01-01T03:11:43;17.33;;;15.10;;
1831;SDS011;1680;48.106;11.708;2023-01-01T03:14:19;15.97;;;13.80;;
1831;SDS011;1680;48.106;11.708;2023-01-01T03:16:52;14.50;;;13.00;;
1831;SDS011;1680;48.106;11.708;2023-01-01T03:19:28;15.07;;;13.00;;
1831;SDS011;1680;48.106;11.708;2023-01-01T03:22:00;14.53;;;12.97;;
1831;SDS011;1680;48.106;11.708;2023-01-01T03:24:31;16.00;;;13.40;;
1831;SDS011;1680;48.106;11.708;2023-01-01T03:27:02;16.70;;;14.50;;
1831;SDS011;1680;48.106;11.708;2023-01-01T03:29:34;18.90;;;15.57;;
1831;SDS011;1680;48.106;11.708;2023-01-01T03:32:09;16.20;;;13.87;;
1831;SDS011;1680;48.106;11.708;2023-01-01T03:34:40;20.40;;;16.17;;
1831;SDS011;1680;48.106;11.708;2023-01-01T03:37:14;16.80;;;14.33;;
1831;SDS011;1680;48.106;11.708;2023-01-01T03:39:47;18.87;;;15.30;;
1831;SDS011;1680;48.106;11.708;2023-01-01T03:42:20;17.10;;;14.13;;
1831;SDS011;1680;48.106;11.708;2023-01-01T03:44:53;18.77;;;14.13;;
1831;SDS011;1680;48.106;11.708;2023-01-01T03:47:27;13.20;;;11.80;;
1831;SDS011;1680;48.106;11.708;2023-01-01T03:49:55;16.40;;;13.67;;
1831;SDS011;1680;48.106;11.708;2023-01-01T03:52:29;13.53;;;11.90;;
1831;SDS011;1680;48.106;11.708;2023-01-01T03:55:05;12.70;;;10.97;;
1831;SDS011;1680;48.106;11.708;2023-01-01T03:57:41;16.60;;;12.00;;
1831;SDS011;1680;48.106;11.708;2023-01-01T04:00:13;12.20;;;9.90;;
1831;SDS011;1680;48.106;11.708;2023-01-01T04:02:46;11.27;;;9.80;;
1831;SDS011;1680;48.106;11.708;2023-01-01T04:05:18;13.00;;;10.53;;
1831;SDS011;1680;48.106;11.708;2023-01-01T04:07:46;13.40;;;11.20;;
1831;SDS011;1680;48.106;11.708;2023-01-01T04:10:15;12.80;;;10.60;;
1831;SDS011;1680;48.106;11.708;2023-01-01T04:12:43;13.83;;;10.57;;
1831;SDS011;1680;48.106;11.708;2023-01-01T04:15:12;13.97;;;10.40;;
1831;SDS011;1680;48.106;11.708;2023-01-01T04:17:40;12.90;;;10.47;;
1831;SDS011;1680;48.106;11.708;2023-01-01T04:20:09;12.93;;;10.73;;
1831;SDS011;1680;48.106;11.708;2023-01-01T04:22:37;11.43;;;9.03;;
1831;SDS011;1680;48.106;11.708;2023-01-01T04:25:05;10.80;;;9.30;;
1831;SDS011;1680;48.106;11.708;2023-01-01T04:27:33;10.70;;;8.80;;
1831;SDS011;1680;48.106;11.708;2023-01-01T04:30:01;8.87;;;7.90;;
1831;SDS011;1680;48.106;11.708;2023-01-01T04:32:28;7.73;;;6.93;;
1831;SDS011;1680;48.106;11.708;2023-01-01T04:34:55;6.80;;;5.80;;
1831;SDS011;1680;48.106;11.708;2023-01-01T04:37:24;6.83;;;5.97;;
1831;SDS011;1680;48.106;11.708;2023-01-01T04:39:52;9.00;;;6.00;;
1831;SDS011;1680;48.106;11.708;2023-01-01T04:42:19;6.33;;;5.10;;
1831;SDS011;1680;48.106;11.708;2023-01-01T04:44:46;6.47;;;5.43;;
1831;SDS011;1680;48.106;11.708;2023-01-01T04:47:13;5.87;;;5.27;;
1831;SDS011;1680;48.106;11.708;2023-01-01T04:49:41;8.23;;;5.50;;
1831;SDS011;1680;48.106;11.708;2023-01-01T04:52:08;7.03;;;5.67;;
1831;SDS011;1680;48.106;11.708;2023-01-01T04:54:36;6.33;;;5.37;;
1831;SDS011;1680;48.106;11.708;2023-01-01T04:57:04;7.10;;;5.03;;
1831;SDS011;1680;48.106;11.708;2023-01-01T04:59:31;5.20;;;4.70;;
1831;SDS011;1680;48.106;11.708;2023-01-01T05:01:59;5.13;;;4.53;;
1831;SDS011;1680;48.106;11.708;2023-01-01T05:04:26;5.50;;;5.00;;
1831;SDS011;1680;48.106;11.708;2023-01-01T05:06:53;5.10;;;4.60;;
1831;SDS011;1680;48.106;11.708;2023-01-01T05:09:20;5.30;;;4.80;;
1831;SDS011;1680;48.106;11.708;2023-01-01T05:11:49;4.80;;;4.00;;
1831;SDS011;1680;48.106;11.708;2023-01-01T05:14:16;5.50;;;4.47;;
1831;SDS011;1680;48.106;11.708;2023-01-01T05:16:44;4.30;;;3.90;;
1831;SDS011;1680;48.106;11.708;2023-01-01T05:19:11;5.90;;;4.67;;
1831;SDS011;1680;48.106;11.708;2023-01-01T05:21:38;5.07;;;4.57;;
1831;SDS011;1680;48.106;11.708;2023-01-01T05:24:07;4.50;;;3.90;;
1831;SDS011;1680;48.106;11.708;2023-01-01T05:26:37;4.80;;;3.90;;
1831;SDS011;1680;48.106;11.708;2023-01-01T05:29:08;4.97;;;3.80;;
1831;SDS011;1680;48.106;11.708;2023-01-01T05:31:35;3.73;;;3.33;;
1831;SDS011;1680;48.106;11.708;2023-01-01T05:34:03;4.00;;;3.33;;
1831;SDS011;1680;48.106;11.708;2023-01-01T05:36:31;4.17;;;3.77;;
1831;SDS011;1680;48.106;11.708;2023-01-01T05:39:02;2.83;;;2.60;;
1831;SDS011;1680;48.106;11.708;2023-01-01T05:41:30;4.00;;;3.40;;
1831;SDS011;1680;48.106;11.708;2023-01-01T05:44:00;3.40;;;3.10;;
1831;SDS011;1680;48.106;11.708;2023-01-01T05:46:30;3.63;;;2.97;;
1831;SDS011;1680;48.106;11.708;2023-01-01T05:48:57;3.67;;;3.20;;
1831;SDS011;1680;48.106;11.708;2023-01-01T05:51:25;3.83;;;3.20;;
1831;SDS011;1680;48.106;11.708;2023-01-01T05:53:54;3.23;;;2.93;;
1831;SDS011;1680;48.106;11.708;2023-01-01T05:56:22;3.30;;;3.00;;
1831;SDS011;1680;48.106;11.708;2023-01-01T05:58:49;4.13;;;3.43;;
1831;SDS011;1680;48.106;11.708;2023-01-01T06:01:18;4.33;;;3.43;;
1831;SDS011;1680;48.106;11.708;2023-01-01T06:03:48;3.33;;;3.03;;
1831;SDS011;1680;48.106;11.708;2023-01-01T06:06:17;3.03;;;2.73;;
1831;SDS011;1680;48.106;11.708;2023-01-01T06:08:49;2.93;;;2.73;;
1831;SDS011;1680;48.106;11.708;2023-01-01T06:11:17;3.20;;;2.90;;
1831;SDS011;1680;48.106;11.708;2023-01-01T06:13:45;3.07;;;2.83;;
1831;SDS011;1680;48.106;11.708;2023-01-01T06:16:13;4.37;;;3.70;;
1831;SDS011;1680;48.106;11.708;2023-01-01T06:18:40;5.77;;;3.90;;
1831;SDS011;1680;48.106;11.708;2023-01-01T06:21:09;6.60;;;4.80;;
1831;SDS011;1680;48.106;11.708;2023-01-01T06:23:38;4.83;;;4.33;;
1831;SDS011;1680;48.106;11.708;2023-01-01T06:26:06;5.30;;;4.43;;
1831;SDS011;1680;48.106;11.708;2023-01-01T06:28:35;5.30;;;4.13;;
1831;SDS011;1680;48.106;11.708;2023-01-01T06:31:03;5.57;;;4.57;;
1831;SDS011;1680;48.106;11.708;2023-01-01T06:33:32;5.30;;;4.30;;
1831;SDS011;1680;48.106;11.708;2023-01-01T06:36:00;4.10;;;3.47;;
1831;SDS011;1680;48.106;11.708;2023-01-01T06:38:30;3.57;;;3.27;;
1831;SDS011;1680;48.106;11.708;2023-01-01T06:40:59;3.43;;;3.07;;
1831;SDS011;1680;48.106;11.708;2023-01-01T06:43:28;3.70;;;3.40;;
1831;SDS011;1680;48.106;11.708;2023-01-01T06:45:59;3.67;;;3.10;;
1831;SDS011;1680;48.106;11.708;2023-01-01T06:48:28;3.07;;;2.77;;
1831;SDS011;1680;48.106;11.708;2023-01-01T06:50:56;3.10;;;2.70;;
1831;SDS011;1680;48.106;11.708;2023-01-01T06:53:23;3.70;;;2.70;;
1831;SDS011;1680;48.106;11.708;2023-01-01T06:55:52;2.83;;;2.53;;
1831;SDS011;1680;48.106;11.708;2023-01-01T06:58:19;3.90;;;2.43;;
1831;SDS011;1680;48.106;11.708;2023-01-01T07:00:46;2.40;;;2.20;;
1831;SDS011;1680;48.106;11.708;2023-01-01T07:03:14;3.63;;;2.50;;
1831;SDS011;1680;48.106;11.708;2023-01-01T07:05:41;4.03;;;2.10;;
1831;SDS011;1680;48.106;11.708;2023-01-01T07:08:08;2.60;;;2.40;;
1831;SDS011;1680;48.106;11.708;2023-01-01T07:10:35;3.13;;;2.57;;
1831;SDS011;1680;48.106;11.708;2023-01-01T07:13:04;1.93;;;1.80;;
1831;SDS011;1680;48.106;11.708;2023-01-01T07:15:31;2.60;;;2.40;;
1831;SDS011;1680;48.106;11.708;2023-01-01T07:17:58;2.97;;;2.67;;
1831;SDS011;1680;48.106;11.708;2023-01-01T07:20:26;2.70;;;2.23;;
1831;SDS011;1680;48.106;11.708;2023-01-01T07:22:53;2.20;;;2.00;;
1831;SDS011;1680;48.106;11.708;2023-01-01T07:25:20;2.40;;;2.20;;
1831;SDS011;1680;48.106;11.708;2023-01-01T07:27:47;2.20;;;2.10;;
1831;SDS011;1680;48.106;11.708;2023-01-01T07:30:16;1.77;;;1.67;;
1831;SDS011;1680;48.106;11.708;2023-01-01T07:32:43;2.30;;;2.10;;
1831;SDS011;1680;48.106;11.708;2023-01-01T07:35:10;3.40;;;2.60;;
1831;SDS011;1680;48.106;11.708;2023-01-01T07:37:37;2.83;;;2.57;;
1831;SDS011;1680;48.106;11.708;2023-01-01T07:40:05;2.63;;;2.40;;
1831;SDS011;1680;48.106;11.708;2023-01-01T07:42:33;2.43;;;2.20;;
1831;SDS011;1680;48.106;11.708;2023-01-01T07:45:00;3.17;;;2.50;;
1831;SDS011;1680;48.106;11.708;2023-01-01T07:47:29;3.10;;;2.33;;
1831;SDS011;1680;48.106;11.708;2023-01-01T07:49:57;2.90;;;2.53;;
1831;SDS011;1680;48.106;11.708;2023-01-01T07:52:24;2.67;;;2.47;;
1831;SDS011;1680;48.106;11.708;2023-01-01T07:54:51;2.53;;;2.33;;
1831;SDS011;1680;48.106;11.708;2023-01-01T07:57:18;4.40;;;2.37;;
1831;SDS011;1680;48.106;11.708;2023-01-01T07:59:46;2.77;;;2.40;;
1831;SDS011;1680;48.106;11.708;2023-01-01T08:02:13;2.27;;;2.10;;
1831;SDS011;1680;48.106;11.708;2023-01-01T08:04:41;3.00;;;2.60;;
1831;SDS011;1680;48.106;11.708;2023-01-01T08:07:09;2.40;;;2.20;;
1831;SDS011;1680;48.106;11.708;2023-01-01T08:09:36;4.10;;;2.20;;
1831;SDS011;1680;48.106;11.708;2023-01-01T08:12:03;1.93;;;1.80;;
1831;SDS011;1680;48.106;11.708;2023-01-01T08:14:31;3.13;;;2.83;;
1831;SDS011;1680;48.106;11.708;2023-01-01T08:16:58;2.80;;;2.03;;
1831;SDS011;1680;48.106;11.708;2023-01-01T08:19:25;2.77;;;1.70;;
1831;SDS011;1680;48.106;11.708;2023-01-01T08:21:53;1.80;;;1.70;;
1831;SDS011;1680;48.106;11.708;2023-01-01T08:24:21;3.73;;;2.20;;
1831;SDS011;1680;48.106;11.708;2023-01-01T08:26:48;2.20;;;2.00;;
1831;SDS011;1680;48.106;11.708;2023-01-01T08:29:15;2.20;;;1.90;;
1831;SDS011;1680;48.106;11.708;2023-01-01T08:31:43;1.70;;;1.60;;
1831;SDS011;1680;48.106;11.708;2023-01-01T08:34:10;2.30;;;2.10;;
1831;SDS011;1680;48.106;11.708;2023-01-01T08:36:37;2.40;;;2.07;;
1831;SDS011;1680;48.106;11.708;2023-01-01T08:39:07;1.90;;;1.80;;
1831;SDS011;1680;48.106;11.708;2023-01-01T08:41:35;1.60;;;1.50;;
1831;SDS011;1680;48.106;11.708;2023-01-01T08:44:03;2.03;;;1.83;;
1831;SDS011;1680;48.106;11.708;2023-01-01T08:46:30;1.70;;;1.60;;
1831;SDS011;1680;48.106;11.708;2023-01-01T08:48:57;1.77;;;1.67;;
1831;SDS011;1680;48.106;11.708;2023-01-01T08:51:24;2.10;;;1.90;;
1831;SDS011;1680;48.106;11.708;2023-01-01T08:53:52;1.70;;;1.60;;
1831;SDS011;1680;48.106;11.708;2023-01-01T08:56:20;1.73;;;1.63;;
1831;SDS011;1680;48.106;11.708;2023-01-01T08:58:47;2.40;;;1.90;;
1831;SDS011;1680;48.106;11.708;2023-01-01T09:01:15;2.20;;;1.70;;
1831;SDS011;1680;48.106;11.708;2023-01-01T09:03:45;2.10;;;2.00;;
1831;SDS011;1680;48.106;11.708;2023-01-01T09:06:15;1.70;;;1.60;;
1831;SDS011;1680;48.106;11.708;2023-01-01T09:08:42;1.83;;;1.70;;
1831;SDS011;1680;48.106;11.708;2023-01-01T09:11:14;1.80;;;1.50;;
1831;SDS011;1680;48.106;11.708;2023-01-01T09:13:47;1.50;;;1.40;;
1831;SDS011;1680;48.106;11.708;2023-01-01T09:16:14;1.67;;;1.57;;
1831;SDS011;1680;48.106;11.708;2023-01-01T09:18:41;1.80;;;1.70;;
1831;SDS011;1680;48.106;11.708;2023-01-01T09:21:09;2.20;;;1.90;;
1831;SDS011;1680;48.106;11.708;2023-01-01T09:23:36;1.90;;;1.70;;
1831;SDS011;1680;48.106;11.708;2023-01-01T09:26:03;1.97;;;1.70;;
1831;SDS011;1680;48.106;11.708;2023-01-01T09:28:31;1.93;;;1.60;;
1831;SDS011;1680;48.106;11.708;2023-01-01T09:31:02;2.00;;;1.73;;
1831;SDS011;1680;48.106;11.708;2023-01-01T09:33:30;2.10;;;1.90;;
1831;SDS011;1680;48.106;11.708;2023-01-01T09:36:10;2.30;;;2.00;;
1831;SDS011;1680;48.106;11.708;2023-01-01T09:38:39;2.27;;;2.07;;
1831;SDS011;1680;48.106;11.708;2023-01-01T09:41:08;2.80;;;2.10;;
1831;SDS011;1680;48.106;11.708;2023-01-01T09:43:45;2.30;;;2.10;;
1831;SDS011;1680;48.106;11.708;2023-01-01T09:46:25;2.73;;;2.47;;
1831;SDS011;1680;48.106;11.708;2023-01-01T09:48:53;2.10;;;1.90;;
1831;SDS011;1680;48.106;11.708;2023-01-01T09:51:23;2.33;;;2.13;;
1831;SDS011;1680;48.106;11.708;2023-01-01T09:53:57;2.10;;;1.97;;
1831;SDS011;1680;48.106;11.708;2023-01-01T09:56:28;2.00;;;1.80;;
1831;SDS011;1680;48.106;11.708;2023-01-01T09:58:57;2.10;;;1.90;;
1831;SDS011;1680;48.106;11.708;2023-01-01T10:01:31;2.03;;;1.90;;
1831;SDS011;1680;48.106;11.708;2023-01-01T10:04:07;2.00;;;1.90;;
1831;SDS011;1680;48.106;11.708;2023-01-01T10:06:56;2.20;;;1.70;;
1831;SDS011;1680;48.106;11.708;2023-01-01T10:09:33;2.00;;;1.90;;
1831;SDS011;1680;48.106;11.708;2023-01-01T10:12:12;1.80;;;1.70;;
1831;SDS011;1680;48.106;11.708;2023-01-01T10:14:47;2.70;;;2.10;;
1831;SDS011;1680;48.106;11.708;2023-01-01T10:17:20;2.07;;;1.80;;
1831;SDS011;1680;48.106;11.708;2023-01-01T10:20:00;2.10;;;1.90;;
1831;SDS011;1680;48.106;11.708;2023-01-01T10:22:30;1.87;;;1.67;;
1831;SDS011;1680;48.106;11.708;2023-01-01T10:25:02;2.30;;;2.10;;
1831;SDS011;1680;48.106;11.708;2023-01-01T10:27:40;1.80;;;1.70;;
1831;SDS011;1680;48.106;11.708;2023-01-01T10:30:12;3.23;;;2.00;;
1831;SDS011;1680;48.106;11.708;2023-01-01T10:32:46;2.23;;;2.03;;
1831;SDS011;1680;48.106;11.708;2023-01-01T10:35:15;2.33;;;2.13;;
1831;SDS011;1680;48.106;11.708;2023-01-01T10:37:43;2.40;;;2.20;;
1831;SDS011;1680;48.106;11.708;2023-01-01T10:40:15;2.30;;;2.10;;
1831;SDS011;1680;48.106;11.708;2023-01-01T10:42:47;3.07;;;2.70;;
1831;SDS011;1680;48.106;11.708;2023-01-01T10:45:17;3.47;;;2.80;;
1831;SDS011;1680;48.106;11.708;2023-01-01T10:48:10;2.43;;;2.23;;
1831;SDS011;1680;48.106;11.708;2023-01-01T10:50:41;2.97;;;2.40;;
1831;SDS011;1680;48.106;11.708;2023-01-01T10:53:23;2.43;;;2.10;;
1831;SDS011;1680;48.106;11.708;2023-01-01T10:55:57;2.47;;;2.23;;
1831;SDS011;1680;48.106;11.708;2023-01-01T10:58:32;2.40;;;2.20;;
1831;SDS011;1680;48.106;11.708;2023-01-01T11:01:05;2.50;;;1.67;;
1831;SDS011;1680;48.106;11.708;2023-01-01T11:03:35;1.73;;;1.60;;
1831;SDS011;1680;48.106;11.708;2023-01-01T11:06:15;2.20;;;1.70;;
1831;SDS011;1680;48.106;11.708;2023-01-01T11:08:47;2.33;;;2.13;;
1831;SDS011;1680;48.106;11.708;2023-01-01T11:11:19;1.83;;;1.63;;
1831;SDS011;1680;48.106;11.708;2023-01-01T11:13:49;2.10;;;1.90;;
1831;SDS011;1680;48.106;11.708;2023-01-01T11:16:19;1.70;;;1.60;;
1831;SDS011;1680;48.106;11.708;2023-01-01T11:18:48;2.53;;;2.20;;
1831;SDS011;1680;48.106;11.708;2023-01-01T11:21:19;2.10;;;1.90;;
1831;SDS011;1680;48.106;11.708;2023-01-01T11:24:08;2.70;;;1.90;;
1831;SDS011;1680;48.106;11.708;2023-01-01T11:26:43;3.87;;;2.17;;
1831;SDS011;1680;48.106;11.708;2023-01-01T11:29:18;1.87;;;1.77;;
1831;SDS011;1680;48.106;11.708;2023-01-01T11:31:49;1.93;;;1.77;;
1831;SDS011;1680;48.106;11.708;2023-01-01T11:34:26;2.80;;;2.10;;
1831;SDS011;1680;48.106;11.708;2023-01-01T11:37:14;2.63;;;2.33;;
1831;SDS011;1680;48.106;11.708;2023-01-01T11:39:49;3.23;;;2.07;;
1831;SDS011;1680;48.106;11.708;2023-01-01T11:42:19;1.80;;;1.70;;
1831;SDS011;1680;48.106;11.708;2023-01-01T11:44:50;2.50;;;1.60;;
1831;SDS011;1680;48.106;11.708;2023-01-01T11:47:25;2.47;;;2.27;;
1831;SDS011;1680;48.106;11.708;2023-01-01T11:49:57;4.27;;;2.40;;
1831;SDS011;1680;48.106;11.708;2023-01-01T11:52:31;2.20;;;2.00;;
1831;SDS011;1680;48.106;11.708;2023-01-01T11:55:07;2.10;;;1.90;;
1831;SDS011;1680;48.106;11.708;2023-01-01T11:57:43;2.10;;;1.90;;
1831;SDS011;1680;48.106;11.708;2023-01-01T12:00:17;2.00;;;1.90;;
1831;SDS011;1680;48.106;11.708;2023-01-01T12:02:46;1.90;;;1.70;;
1831;SDS011;1680;48.106;11.708;2023-01-01T12:05:19;1.73;;;1.63;;
1831;SDS011;1680;48.106;11.708;2023-01-01T12:07:50;2.40;;;2.10;;
1831;SDS011;1680;48.106;11.708;2023-01-01T12:10:20;2.27;;;2.07;;
1831;SDS011;1680;48.106;11.708;2023-01-01T12:12:50;2.07;;;1.90;;
1831;SDS011;1680;48.106;11.708;2023-01-01T12:15:23;2.07;;;1.87;;
1831;SDS011;1680;48.106;11.708;2023-01-01T12:17:58;2.73;;;1.80;;
1831;SDS011;1680;48.106;11.708;2023-01-01T12:20:32;2.87;;;1.50;;
1831;SDS011;1680;48.106;11.708;2023-01-01T12:23:03;1.70;;;1.60;;
1831;SDS011;1680;48.106;11.708;2023-01-01T12:25:33;1.97;;;1.77;;
1831;SDS011;1680;48.106;11.708;2023-01-01T12:28:14;2.30;;;2.07;;
1831;SDS011;1680;48.106;11.708;2023-01-01T12:30:56;2.00;;;1.40;;
1831;SDS011;1680;48.106;11.708;2023-01-01T12:33:36;2.00;;;1.80;;
1831;SDS011;1680;48.106;11.708;2023-01-01T12:36:20;2.17;;;1.63;;
1831;SDS011;1680;48.106;11.708;2023-01-01T12:42:04;2.23;;;1.60;;
1831;SDS011;1680;48.106;11.708;2023-01-01T12:44:43;2.90;;;2.00;;
1831;SDS011;1680;48.106;11.708;2023-01-01T12:47:24;1.90;;;1.67;;
1831;SDS011;1680;48.106;11.708;2023-01-01T12:50:06;2.10;;;1.90;;
1831;SDS011;1680;48.106;11.708;2023-01-01T12:52:42;2.10;;;1.90;;
1831;SDS011;1680;48.106;11.708;2023-01-01T12:58:10;3.63;;;1.87;;
1831;SDS011;1680;48.106;11.708;2023-01-01T13:00:41;2.10;;;1.80;;
1831;SDS011;1680;48.106;11.708;2023-01-01T13:03:15;2.03;;;1.90;;
1831;SDS011;1680;48.106;11.708;2023-01-01T13:05:46;1.80;;;1.53;;
1831;SDS011;1680;48.106;11.708;2023-01-01T13:08:17;1.50;;;1.40;;
1831;SDS011;1680;48.106;11.708;2023-01-01T13:10:45;1.50;;;1.40;;
1831;SDS011;1680;48.106;11.708;2023-01-01T13:13:15;1.90;;;1.80;;
1831;SDS011;1680;48.106;11.708;2023-01-01T13:15:43;2.20;;;2.00;;
1831;SDS011;1680;48.106;11.708;2023-01-01T13:18:20;1.37;;;1.27;;
1831;SDS011;1680;48.106;11.708;2023-01-01T13:20:53;1.57;;;1.33;;
1831;SDS011;1680;48.106;11.708;2023-01-01T13:23:44;2.40;;;1.80;;
1831;SDS011;1680;48.106;11.708;2023-01-01T13:32:11;1.63;;;1.53;;
1831;SDS011;1680;48.106;11.708;2023-01-01T13:37:26;3.87;;;2.37;;
1831;SDS011;1680;48.106;11.708;2023-01-01T13:43:18;2.27;;;2.07;;
1831;SDS011;1680;48.106;11.708;2023-01-01T13:45:51;2.90;;;2.43;;
1831;SDS011;1680;48.106;11.708;2023-01-01T13:48:30;2.90;;;2.57;;
1831;SDS011;1680;48.106;11.708;2023-01-01T13:51:19;2.97;;;2.57;;
1831;SDS011;1680;48.106;11.708;2023-01-01T13:54:00;2.77;;;2.50;;
1831;SDS011;1680;48.106;11.708;2023-01-01T13:56:47;2.67;;;2.20;;
1831;SDS011;1680;48.106;11.708;2023-01-01T13:59:32;2.60;;;2.37;;
1831;SDS011;1680;48.106;11.708;2023-01-01T14:02:14;2.57;;;2.30;;
1831;SDS011;1680;48.106;11.708;2023-01-01T14:04:48;2.37;;;2.17;;
1831;SDS011;1680;48.106;11.708;2023-01-01T14:07:21;2.40;;;2.20;;
1831;SDS011;1680;48.106;11.708;2023-01-01T14:10:16;2.20;;;2.00;;
1831;SDS011;1680;48.106;11.708;2023-01-01T14:12:46;3.17;;;2.23;;
1831;SDS011;1680;48.106;11.708;2023-01-01T14:15:14;2.57;;;2.20;;
1831;SDS011;1680;48.106;11.708;2023-01-01T14:17:43;2.27;;;2.07;;
1831;SDS011;1680;48.106;11.708;2023-01-01T14:20:13;2.10;;;1.93;;
1831;SDS011;1680;48.106;11.708;2023-01-01T14:22:43;2.50;;;2.07;;
1831;SDS011;1680;48.106;11.708;2023-01-01T14:25:14;2.33;;;2.13;;
1831;SDS011;1680;48.106;11.708;2023-01-01T14:27:44;3.17;;;2.40;;
1831;SDS011;1680;48.106;11.708;2023-01-01T14:30:15;4.60;;;3.10;;
1831;SDS011;1680;48.106;11.708;2023-01-01T14:32:44;36.30;;;25.20;;
1831;SDS011;1680;48.106;11.708;2023-01-01T14:35:13;33.37;;;20.40;;
1831;SDS011;1680;48.106;11.708;2023-01-01T14:37:41;12.70;;;10.13;;
1831;SDS011;1680;48.106;11.708;2023-01-01T14:40:17;10.60;;;7.93;;
1831;SDS011;1680;48.106;11.708;2023-01-01T14:42:51;6.60;;;5.80;;
1831;SDS011;1680;48.106;11.708;2023-01-01T14:45:23;6.07;;;4.53;;
1831;SDS011;1680;48.106;11.708;2023-01-01T14:47:51;4.60;;;4.20;;
1831;SDS011;1680;48.106;11.708;2023-01-01T14:50:23;7.07;;;5.53;;
1831;SDS011;1680;48.106;11.708;2023-01-01T14:52:54;6.20;;;5.60;;
1831;SDS011;1680;48.106;11.708;2023-01-01T14:55:31;5.80;;;5.10;;
1831;SDS011;1680;48.106;11.708;2023-01-01T14:58:05;5.80;;;4.10;;
1831;SDS011;1680;48.106;11.708;2023-01-01T15:00:38;3.40;;;3.10;;
1831;SDS011;1680;48.106;11.708;2023-01-01T15:03:06;3.73;;;3.17;;
1831;SDS011;1680;48.106;11.708;2023-01-01T15:05:39;3.20;;;2.90;;
1831;SDS011;1680;48.106;11.708;2023-01-01T15:08:17;2.70;;;2.50;;
1831;SDS011;1680;48.106;11.708;2023-01-01T15:10:45;2.60;;;2.37;;
1831;SDS011;1680;48.106;11.708;2023-01-01T15:13:16;3.30;;;2.77;;
1831;SDS011;1680;48.106;11.708;2023-01-01T15:15:46;4.53;;;3.10;;
1831;SDS011;1680;48.106;11.708;2023-01-01T15:18:34;4.17;;;3.80;;
1831;SDS011;1680;48.106;11.708;2023-01-01T15:21:03;3.53;;;3.23;;
1831;SDS011;1680;48.106;11.708;2023-01-01T15:23:32;3.40;;;3.10;;
1831;SDS011;1680;48.106;11.708;2023-01-01T15:26:01;3.27;;;2.97;;
1831;SDS011;1680;48.106;11.708;2023-01-01T15:28:32;2.93;;;2.73;;
1831;SDS011;1680;48.106;11.708;2023-01-01T15:31:00;3.80;;;3.10;;
1831;SDS011;1680;48.106;11.708;2023-01-01T15:33:28;3.00;;;2.30;;
1831;SDS011;1680;48.106;11.708;2023-01-01T15:35:55;3.70;;;3.03;;
1831;SDS011;1680;48.106;11.708;2023-01-01T15:38:27;4.10;;;3.13;;